Time;durP1;ratioP1;P1;durP2;ratioP2;P2;SDS_P1;SDS_P2;PMS_P1;PMS_P2;Temp;Humidity;BMP_temperature;BMP_pressure;BME280_temperature;BME280_humidity;BME280_pressure;Samples;Min_cycle;Max_cycle;Signal;HPM_P1;HPM_P2
2021/07/28 00:02:26;;;;;;;18.07;9.17;;;19.10;97.30;;;;;;5024949;28;20504;-89
2021/07/28 00:04:54;;;;;;;11.60;8.63;;;19.10;97.30;;;;;;5025569;28;20439;-89
2021/07/28 00:07:23;;;;;;;17.93;9.50;;;19.10;97.30;;;;;;5022334;28;20780;-89
2021/07/28 00:09:55;;;;;;;15.97;10.47;;;19.10;97.30;;;;;;5016620;28;20458;-89
2021/07/28 00:12:23;;;;;;;18.40;9.87;;;19.00;97.30;;;;;;5027315;28;20468;-89
2021/07/28 00:14:55;;;;;;;19.50;9.77;;;19.00;97.30;;;;;;5023125;28;20442;-89
2021/07/28 00:17:26;;;;;;;13.13;9.30;;;19.00;97.30;;;;;;5025905;28;20498;-89
2021/07/28 00:23:16;;;;;;;14.67;9.30;;;19.00;97.30;;;;;;5036909;28;20693;-88
2021/07/28 00:25:47;;;;;;;15.33;9.37;;;19.00;97.30;;;;;;5017139;28;20844;-89
2021/07/28 00:28:16;;;;;;;14.70;8.53;;;18.90;97.30;;;;;;5019782;28;20422;-89
2021/07/28 00:30:44;;;;;;;19.20;10.07;;;18.90;97.30;;;;;;5048266;28;20435;-89
2021/07/28 00:33:16;;;;;;;18.17;10.07;;;18.90;97.30;;;;;;5038635;28;20455;-90
2021/07/28 00:35:47;;;;;;;17.27;9.40;;;18.90;97.30;;;;;;5026335;28;20479;-89
2021/07/28 00:38:16;;;;;;;17.23;10.10;;;18.90;97.30;;;;;;5018076;28;21101;-89
2021/07/28 00:40:45;;;;;;;14.90;9.73;;;18.90;97.30;;;;;;5019176;28;20485;-89
2021/07/28 00:43:15;;;;;;;18.00;10.50;;;18.90;97.30;;;;;;5019220;28;20435;-89
2021/07/28 00:45:44;;;;;;;18.60;10.10;;;18.90;97.30;;;;;;5026337;28;20490;-90
2021/07/28 00:48:15;;;;;;;14.87;9.50;;;18.80;97.30;;;;;;5028139;28;20427;-89
2021/07/28 00:50:44;;;;;;;18.47;10.77;;;18.80;97.30;;;;;;5035027;28;20444;-89
2021/07/28 00:53:55;;;;;;;15.00;9.30;;;18.90;97.30;;;;;;5016356;28;20474;-90
2021/07/28 00:56:05;;;;;;;16.17;9.67;;;18.90;97.30;;;;;;5024205;28;20474;-90
2021/07/28 00:58:36;;;;;;;15.20;9.23;;;18.90;97.30;;;;;;5040934;28;20414;-89
2021/07/28 01:01:05;;;;;;;17.20;10.50;;;18.80;97.30;;;;;;5033144;28;20435;-89
2021/07/28 01:03:46;;;;;;;22.80;10.30;;;18.80;97.30;;;;;;5015899;28;20431;-89
2021/07/28 01:06:15;;;;;;;13.90;9.27;;;18.80;97.30;;;;;;5017431;28;20451;-89
2021/07/28 01:08:46;;;;;;;17.27;10.13;;;18.80;97.30;;;;;;5015611;28;20518;-89
2021/07/28 01:11:26;;;;;;;18.17;11.13;;;18.80;97.30;;;;;;5017299;28;20420;-88
2021/07/28 01:14:02;;;;;;;19.27;11.80;;;18.90;97.30;;;;;;5016033;28;20502;-87
2021/07/28 01:16:38;;;;;;;15.47;10.70;;;18.90;97.30;;;;;;5017193;28;20459;-88
2021/07/28 01:19:16;;;;;;;21.60;12.00;;;18.90;97.30;;;;;;5013383;28;20408;-87
2021/07/28 01:21:44;;;;;;;20.50;11.10;;;18.80;97.30;;;;;;5016299;28;20494;-86
2021/07/28 01:24:13;;;;;;;20.07;10.90;;;18.80;97.30;;;;;;5013546;28;20436;-87
2021/07/28 01:26:46;;;;;;;19.33;11.53;;;18.70;97.30;;;;;;5014056;28;20460;-87
2021/07/28 01:29:12;;;;;;;22.40;13.20;;;18.70;97.30;;;;;;5013011;28;20420;-86
2021/07/28 01:31:43;;;;;;;27.20;12.43;;;18.60;97.30;;;;;;5034922;28;20466;-87
2021/07/28 01:34:10;;;;;;;20.07;12.23;;;18.60;97.30;;;;;;5025543;28;20862;-87
2021/07/28 01:36:36;;;;;;;22.43;12.20;;;18.50;97.30;;;;;;5029808;28;20487;-87
2021/07/28 01:39:04;;;;;;;29.90;13.03;;;18.50;97.30;;;;;;5013195;28;20486;-87
2021/07/28 01:41:33;;;;;;;23.43;11.97;;;18.40;97.30;;;;;;5025546;28;20462;-87
2021/07/28 01:43:59;;;;;;;28.93;12.73;;;18.30;97.30;;;;;;5014376;28;20437;-87
2021/07/28 01:46:25;;;;;;;22.03;13.03;;;18.20;97.30;;;;;;5012720;28;21057;-88
2021/07/28 01:48:50;;;;;;;21.27;12.27;;;18.20;97.30;;;;;;5019917;28;20209;-88
2021/07/28 01:51:16;;;;;;;18.70;12.03;;;18.10;97.30;;;;;;5029033;28;20177;-88
2021/07/28 01:53:43;;;;;;;21.87;12.23;;;18.10;97.30;;;;;;5011971;28;20181;-88
2021/07/28 01:56:09;;;;;;;16.70;11.57;;;18.10;97.30;;;;;;5014305;28;20399;-88
2021/07/28 01:58:38;;;;;;;24.40;12.20;;;18.10;97.30;;;;;;5028452;28;20436;-88
2021/07/28 02:01:04;;;;;;;23.73;11.87;;;18.10;97.30;;;;;;5016094;28;20536;-87
2021/07/28 02:03:31;;;;;;;22.77;11.13;;;18.10;97.30;;;;;;5012374;28;20428;-88
2021/07/28 02:05:57;;;;;;;28.53;13.60;;;18.10;97.30;;;;;;5012445;28;20201;-88
2021/07/28 02:08:22;;;;;;;21.77;12.90;;;18.10;97.30;;;;;;5027599;28;20470;-88
2021/07/28 02:10:51;;;;;;;26.30;12.17;;;18.20;97.30;;;;;;5029733;28;20176;-88
2021/07/28 02:13:19;;;;;;;25.07;12.37;;;18.20;97.30;;;;;;5032270;28;20224;-88
2021/07/28 02:15:45;;;;;;;25.53;13.27;;;18.20;97.30;;;;;;5028401;28;20531;-88
2021/07/28 02:18:11;;;;;;;22.17;12.90;;;18.20;97.30;;;;;;5011698;28;20474;-88
2021/07/28 02:20:44;;;;;;;24.93;13.07;;;18.20;97.30;;;;;;5012036;28;20416;-88
2021/07/28 02:23:12;;;;;;;21.87;11.57;;;18.30;97.30;;;;;;5011929;28;20181;-88
2021/07/28 02:25:38;;;;;;;21.30;12.73;;;18.30;97.30;;;;;;5013768;28;20492;-88
2021/07/28 02:28:03;;;;;;;19.17;11.07;;;18.30;97.30;;;;;;5027816;28;20431;-88
2021/07/28 02:30:34;;;;;;;26.47;13.67;;;18.30;97.30;;;;;;5024918;28;20185;-88
2021/07/28 02:32:59;;;;;;;26.40;13.07;;;18.30;97.30;;;;;;5012849;28;20700;-88
2021/07/28 02:35:25;;;;;;;26.03;12.67;;;18.30;97.30;;;;;;5012532;28;20444;-88
2021/07/28 02:37:51;;;;;;;21.50;12.90;;;18.30;97.30;;;;;;5037316;28;20330;-88
2021/07/28 02:40:19;;;;;;;24.23;13.43;;;18.30;97.30;;;;;;5011938;28;20268;-88
2021/07/28 02:42:45;;;;;;;20.47;12.17;;;18.30;97.30;;;;;;5025151;28;20204;-88
2021/07/28 02:45:13;;;;;;;22.90;11.50;;;18.30;97.30;;;;;;5021805;28;20452;-89
2021/07/28 02:47:43;;;;;;;20.57;11.90;;;18.30;97.30;;;;;;5011957;28;20431;-88
2021/07/28 02:50:09;;;;;;;21.70;12.50;;;18.30;97.30;;;;;;5026030;28;20432;-88
2021/07/28 02:52:35;;;;;;;25.53;12.57;;;18.30;97.30;;;;;;5025737;28;21103;-88
2021/07/28 02:55:07;;;;;;;20.10;11.50;;;18.30;97.30;;;;;;5030714;28;20459;-88
2021/07/28 02:57:37;;;;;;;20.63;11.90;;;18.30;97.30;;;;;;5027799;28;20189;-88
2021/07/28 03:00:04;;;;;;;23.90;11.40;;;18.30;97.30;;;;;;5011776;28;20424;-89
2021/07/28 03:02:30;;;;;;;20.70;11.97;;;18.30;97.30;;;;;;5020944;28;20455;-88
2021/07/28 03:04:55;;;;;;;24.37;12.47;;;18.30;97.30;;;;;;5017456;28;20974;-88
2021/07/28 03:07:21;;;;;;;20.90;11.57;;;18.30;97.30;;;;;;5012370;28;20181;-88
2021/07/28 03:09:46;;;;;;;16.80;11.10;;;18.30;97.30;;;;;;5011960;28;20185;-88
2021/07/28 03:12:12;;;;;;;19.93;12.07;;;18.30;97.30;;;;;;5012611;28;20215;-88
2021/07/28 03:14:37;;;;;;;17.97;11.60;;;18.30;97.30;;;;;;5011806;28;20670;-88
2021/07/28 03:17:03;;;;;;;18.77;12.73;;;18.30;97.30;;;;;;5017697;28;20181;-88
2021/07/28 03:19:28;;;;;;;24.27;12.20;;;18.30;97.30;;;;;;5030010;28;20176;-88
2021/07/28 03:21:54;;;;;;;19.33;11.80;;;18.30;97.30;;;;;;5022093;28;20291;-88
2021/07/28 03:24:19;;;;;;;23.27;11.30;;;18.30;97.30;;;;;;5011226;28;20180;-88
2021/07/28 03:26:45;;;;;;;26.77;12.57;;;18.30;97.30;;;;;;5018101;28;20702;-87
2021/07/28 03:29:11;;;;;;;19.80;11.77;;;18.20;97.30;;;;;;5025938;28;20181;-89
2021/07/28 03:31:37;;;;;;;22.80;11.70;;;18.20;97.30;;;;;;5022059;28;20928;-89
2021/07/28 03:34:02;;;;;;;18.30;12.40;;;18.10;97.30;;;;;;5011690;28;20416;-88
2021/07/28 03:36:30;;;;;;;17.33;10.53;;;18.20;97.30;;;;;;5025065;28;20200;-88
2021/07/28 03:38:56;;;;;;;20.37;11.70;;;18.20;97.30;;;;;;5011088;28;20264;-88
2021/07/28 03:41:21;;;;;;;21.93;11.37;;;18.20;97.30;;;;;;5010648;28;20527;-88
2021/07/28 03:43:47;;;;;;;17.97;11.10;;;18.10;97.30;;;;;;5016141;28;20241;-88
2021/07/28 03:46:12;;;;;;;19.43;11.70;;;18.10;97.30;;;;;;5022533;28;20203;-87
2021/07/28 03:48:38;;;;;;;19.73;12.17;;;18.10;97.30;;;;;;5026811;28;20247;-88
2021/07/28 03:51:03;;;;;;;20.70;12.53;;;18.10;97.30;;;;;;5027766;28;20673;-88
2021/07/28 03:53:29;;;;;;;23.13;11.77;;;18.00;97.30;;;;;;5024566;28;20205;-88
2021/07/28 03:55:55;;;;;;;22.40;12.07;;;18.00;97.30;;;;;;5014437;28;20224;-88
2021/07/28 03:58:20;;;;;;;18.00;10.97;;;18.00;97.30;;;;;;5030806;28;20172;-88
2021/07/28 04:00:46;;;;;;;19.90;11.73;;;18.00;97.30;;;;;;5026344;28;20416;-88
2021/07/28 04:03:11;;;;;;;17.87;11.33;;;18.00;97.30;;;;;;5015923;28;20659;-88
2021/07/28 04:05:37;;;;;;;22.33;11.27;;;18.00;97.30;;;;;;5015002;28;20197;-88
2021/07/28 04:08:03;;;;;;;18.97;11.87;;;18.00;97.30;;;;;;5030834;28;20184;-88
2021/07/28 04:10:31;;;;;;;21.43;11.37;;;18.00;97.30;;;;;;5015657;28;20243;-88
2021/07/28 04:12:56;;;;;;;35.43;11.83;;;18.00;97.30;;;;;;5022599;28;20860;-88
2021/07/28 04:15:22;;;;;;;24.43;11.30;;;17.90;97.30;;;;;;5014993;28;20517;-88
2021/07/28 04:17:47;;;;;;;20.23;11.37;;;18.00;97.30;;;;;;5015548;28;20173;-88
2021/07/28 04:20:14;;;;;;;18.70;11.00;;;18.00;97.30;;;;;;5014608;28;20181;-87
2021/07/28 04:22:40;;;;;;;20.47;11.90;;;18.00;97.30;;;;;;5019788;28;20220;-88
2021/07/28 04:25:06;;;;;;;19.60;10.80;;;18.00;97.30;;;;;;5014798;28;20480;-88
2021/07/28 04:27:32;;;;;;;21.10;12.10;;;18.00;97.30;;;;;;5021034;28;20195;-87
2021/07/28 04:29:58;;;;;;;18.17;11.53;;;18.00;97.30;;;;;;5026772;28;20436;-88
2021/07/28 04:32:24;;;;;;;20.67;10.97;;;17.90;97.30;;;;;;5026823;28;20459;-88
2021/07/28 04:34:50;;;;;;;29.13;11.37;;;17.90;97.30;;;;;;5024570;28;20481;-89
2021/07/28 04:37:16;;;;;;;17.30;10.20;;;17.90;97.30;;;;;;5025694;28;20185;-87
2021/07/28 04:39:43;;;;;;;19.17;11.57;;;17.90;97.30;;;;;;5023240;28;20172;-88
2021/07/28 04:42:09;;;;;;;21.07;10.60;;;17.80;97.30;;;;;;5027598;28;20440;-88
2021/07/28 04:44:36;;;;;;;17.07;10.30;;;17.80;97.30;;;;;;5031342;28;20431;-87
2021/07/28 04:47:03;;;;;;;20.53;10.33;;;17.80;97.30;;;;;;5024702;28;20188;-89
2021/07/28 04:49:29;;;;;;;20.30;10.60;;;17.80;97.30;;;;;;5030831;28;20436;-88
2021/07/28 04:51:54;;;;;;;22.27;11.10;;;17.80;97.30;;;;;;5019919;28;20830;-89
2021/07/28 04:54:20;;;;;;;20.63;10.67;;;17.80;97.30;;;;;;5027815;28;20205;-88
2021/07/28 04:56:46;;;;;;;20.40;10.77;;;17.80;97.30;;;;;;5028385;28;20221;-88
2021/07/28 04:59:11;;;;;;;18.03;10.10;;;17.70;97.30;;;;;;5014721;28;20345;-88
2021/07/28 05:01:37;;;;;;;16.67;10.83;;;17.60;97.30;;;;;;5030308;28;20283;-88
2021/07/28 05:04:05;;;;;;;22.13;10.97;;;17.60;97.30;;;;;;5033881;28;20223;-88
2021/07/28 05:06:31;;;;;;;21.07;12.50;;;17.60;97.30;;;;;;5032866;28;20226;-88
2021/07/28 05:08:57;;;;;;;19.40;11.43;;;17.70;97.30;;;;;;5034587;28;20565;-88
2021/07/28 05:11:22;;;;;;;21.37;12.20;;;17.70;97.30;;;;;;5031096;28;20440;-87
2021/07/28 05:13:48;;;;;;;22.00;12.33;;;17.70;97.30;;;;;;5031279;28;20183;-88
2021/07/28 05:16:13;;;;;;;17.80;11.13;;;17.70;97.30;;;;;;5030919;28;20660;-88
2021/07/28 05:18:39;;;;;;;22.67;12.00;;;17.70;97.30;;;;;;5025944;28;20444;-88
2021/07/28 05:21:04;;;;;;;22.90;12.23;;;17.70;97.30;;;;;;5026002;28;20185;-89
2021/07/28 05:23:30;;;;;;;22.27;12.93;;;17.80;97.30;;;;;;5043752;28;20169;-90
2021/07/28 05:25:55;;;;;;;20.20;12.07;;;17.80;97.30;;;;;;5048034;28;20263;-89
2021/07/28 05:28:21;;;;;;;20.50;12.33;;;17.80;97.30;;;;;;5056160;28;20251;-89
2021/07/28 05:30:46;;;;;;;27.30;12.17;;;17.90;97.30;;;;;;5048551;28;20204;-89
2021/07/28 05:33:12;;;;;;;22.20;11.73;;;17.90;97.30;;;;;;5033551;28;20212;-89
2021/07/28 05:35:37;;;;;;;19.80;11.30;;;18.00;97.30;;;;;;5016271;28;20273;-88
2021/07/28 05:38:03;;;;;;;24.53;10.70;;;18.00;97.30;;;;;;5019241;28;20175;-87
2021/07/28 05:40:30;;;;;;;18.73;11.10;;;18.00;97.30;;;;;;5014260;28;20671;-89
2021/07/28 05:42:56;;;;;;;21.07;11.20;;;18.00;97.30;;;;;;5020630;28;20464;-88
2021/07/28 05:45:22;;;;;;;25.30;11.87;;;18.00;97.30;;;;;;5031029;28;20458;-88
2021/07/28 05:47:48;;;;;;;20.90;10.53;;;18.00;97.30;;;;;;5029168;28;20451;-88
2021/07/28 05:50:14;;;;;;;21.53;11.60;;;18.00;97.30;;;;;;5014217;28;20319;-88
2021/07/28 05:52:40;;;;;;;15.90;10.40;;;17.90;97.30;;;;;;5013931;28;20225;-89
2021/07/28 05:55:06;;;;;;;17.50;10.87;;;17.90;97.30;;;;;;5020498;28;20558;-88
2021/07/28 05:57:32;;;;;;;17.47;11.00;;;18.00;97.30;;;;;;5029781;28;20429;-88
2021/07/28 05:59:57;;;;;;;23.73;10.60;;;18.00;97.30;;;;;;5014351;28;20487;-88
2021/07/28 06:02:23;;;;;;;18.93;11.37;;;18.00;97.30;;;;;;5017455;28;20682;-88
2021/07/28 06:04:49;;;;;;;25.40;10.83;;;18.00;97.30;;;;;;5013403;28;20173;-88
2021/07/28 06:07:14;;;;;;;20.93;11.17;;;18.00;97.30;;;;;;5021348;28;20644;-89
2021/07/28 06:09:40;;;;;;;21.00;11.37;;;18.10;97.30;;;;;;5020420;28;20530;-89
2021/07/28 06:12:07;;;;;;;21.90;11.47;;;18.10;97.30;;;;;;5014020;28;20205;-89
2021/07/28 06:14:32;;;;;;;23.00;10.83;;;18.20;97.30;;;;;;5012692;28;20420;-88
2021/07/28 06:17:00;;;;;;;20.10;12.43;;;18.30;97.30;;;;;;5017706;28;20454;-88
2021/07/28 06:19:25;;;;;;;21.60;10.67;;;18.30;97.30;;;;;;5013692;28;20196;-89
2021/07/28 06:21:51;;;;;;;20.20;11.03;;;18.30;97.30;;;;;;5012813;28;20498;-89
2021/07/28 06:24:16;;;;;;;19.63;11.60;;;18.40;97.30;;;;;;5012429;28;20625;-89
2021/07/28 06:26:42;;;;;;;18.53;10.40;;;18.40;97.30;;;;;;5028971;28;20205;-88
2021/07/28 06:29:07;;;;;;;19.63;10.90;;;18.40;97.30;;;;;;5013196;28;20231;-88
2021/07/28 06:31:33;;;;;;;23.57;11.33;;;18.40;97.30;;;;;;5020144;28;20195;-88
2021/07/28 06:33:58;;;;;;;22.97;11.90;;;18.40;97.30;;;;;;5030141;28;20216;-89
2021/07/28 06:36:24;;;;;;;21.13;12.27;;;18.40;97.30;;;;;;5014976;28;20626;-89
2021/07/28 06:38:49;;;;;;;19.60;11.37;;;18.50;97.30;;;;;;5018316;28;20280;-89
2021/07/28 06:41:15;;;;;;;17.73;11.50;;;18.50;97.30;;;;;;5032390;28;20173;-89
2021/07/28 06:43:43;;;;;;;22.73;11.20;;;18.50;97.30;;;;;;5028259;28;20185;-89
2021/07/28 06:46:08;;;;;;;20.87;12.27;;;18.60;97.30;;;;;;5014128;28;20201;-88
2021/07/28 06:48:34;;;;;;;20.13;11.93;;;18.70;97.30;;;;;;5028136;28;20446;-89
2021/07/28 06:51:07;;;;;;;23.20;11.37;;;18.70;97.30;;;;;;5013404;28;20185;-88
2021/07/28 06:53:35;;;;;;;16.90;10.60;;;18.80;97.30;;;;;;5020384;28;20216;-89
2021/07/28 06:56:02;;;;;;;22.40;11.90;;;19.00;97.30;;;;;;5013073;28;20475;-88
2021/07/28 06:58:28;;;;;;;21.00;10.27;;;19.10;97.30;;;;;;5028928;28;20506;-88
2021/07/28 07:00:56;;;;;;;16.30;9.93;;;19.20;97.30;;;;;;5012562;28;20950;-88
2021/07/28 07:03:22;;;;;;;31.93;11.00;;;19.20;97.30;;;;;;5013872;28;20177;-87
2021/07/28 07:05:48;;;;;;;16.93;10.63;;;19.30;97.30;;;;;;5013182;28;20454;-89
2021/07/28 07:08:14;;;;;;;20.17;11.07;;;19.40;97.30;;;;;;5018037;28;20172;-89
2021/07/28 07:10:40;;;;;;;16.93;10.53;;;19.50;97.30;;;;;;5019755;28;20872;-89
2021/07/28 07:13:05;;;;;;;14.40;8.90;;;19.60;97.30;;;;;;5012017;28;21021;-89
2021/07/28 07:15:33;;;;;;;13.57;8.70;;;19.80;97.30;;;;;;5013205;28;20295;-88
2021/07/28 07:18:01;;;;;;;19.13;8.20;;;19.80;97.30;;;;;;5030474;28;20184;-89
2021/07/28 07:20:27;;;;;;;12.43;7.90;;;19.80;97.30;;;;;;5014192;28;20446;-89
2021/07/28 07:22:52;;;;;;;10.47;7.23;;;20.00;97.30;;;;;;5023818;28;20880;-88
2021/07/28 07:25:20;;;;;;;15.07;7.57;;;20.00;97.30;;;;;;5014011;28;20207;-88
2021/07/28 07:27:45;;;;;;;15.67;7.43;;;20.10;97.30;;;;;;5022822;28;20192;-88
2021/07/28 07:30:13;;;;;;;12.07;7.10;;;20.10;97.30;;;;;;5012600;28;20535;-89
2021/07/28 07:32:41;;;;;;;10.37;6.20;;;20.10;97.30;;;;;;5027761;28;20674;-89
2021/07/28 07:35:07;;;;;;;9.80;6.73;;;20.20;97.30;;;;;;5028655;28;20451;-89
2021/07/28 07:37:34;;;;;;;9.53;5.80;;;20.20;97.30;;;;;;5025205;28;20419;-89
2021/07/28 07:40:02;;;;;;;10.07;7.10;;;20.40;97.30;;;;;;5012000;28;20490;-89
2021/07/28 07:42:30;;;;;;;11.73;6.13;;;20.50;97.30;;;;;;5012188;28;20559;-88
2021/07/28 07:44:58;;;;;;;9.43;6.30;;;20.60;97.30;;;;;;5015451;28;20444;-89
2021/07/28 07:47:23;;;;;;;12.53;7.10;;;20.70;97.30;;;;;;5021253;28;20435;-88
2021/07/28 07:49:49;;;;;;;13.63;6.80;;;20.80;97.30;;;;;;5014896;28;20436;-88
2021/07/28 07:52:14;;;;;;;7.97;5.07;;;20.80;97.30;;;;;;5011339;28;20205;-87
2021/07/28 07:54:42;;;;;;;8.23;4.97;;;20.80;97.30;;;;;;5022640;28;20185;-88
2021/07/28 07:57:08;;;;;;;7.90;5.30;;;20.80;97.30;;;;;;5013511;28;20177;-89
2021/07/28 07:59:33;;;;;;;7.10;5.30;;;20.80;97.30;;;;;;5025919;28;20973;-88
2021/07/28 08:01:59;;;;;;;9.23;6.10;;;20.80;97.30;;;;;;5025044;28;20200;-89
2021/07/28 08:04:24;;;;;;;7.80;5.30;;;20.80;97.30;;;;;;5015275;28;20196;-89
2021/07/28 08:06:50;;;;;;;10.80;5.77;;;21.00;97.30;;;;;;5024734;28;20236;-90
2021/07/28 08:09:16;;;;;;;10.57;6.40;;;21.10;97.30;;;;;;5014138;28;20596;-89
2021/07/28 08:11:41;;;;;;;12.47;5.67;;;21.30;97.30;;;;;;5012661;28;20416;-89
2021/07/28 08:14:07;;;;;;;8.83;6.03;;;21.30;97.30;;;;;;5011468;28;20244;-90
2021/07/28 08:16:35;;;;;;;11.73;5.57;;;21.40;97.30;;;;;;5014587;28;20201;-89
2021/07/28 08:19:03;;;;;;;10.73;5.90;;;21.40;97.30;;;;;;5031178;28;20557;-89
2021/07/28 08:21:29;;;;;;;12.80;6.20;;;21.30;97.30;;;;;;5023187;28;20432;-90
2021/07/28 08:23:54;;;;;;;9.10;5.40;;;21.30;97.30;;;;;;5011595;28;20431;-89
2021/07/28 08:26:20;;;;;;;9.27;5.80;;;21.20;97.30;;;;;;5011208;28;20197;-89
2021/07/28 08:28:45;;;;;;;7.90;5.13;;;21.10;97.30;;;;;;5011660;28;20648;-89
2021/07/28 08:31:13;;;;;;;9.50;5.50;;;21.10;97.30;;;;;;5013950;28;20181;-90
2021/07/28 08:33:39;;;;;;;8.43;5.80;;;21.10;97.30;;;;;;5030787;28;20299;-90
2021/07/28 08:36:04;;;;;;;9.13;5.60;;;21.10;97.30;;;;;;5023092;28;20545;-87
2021/07/28 08:38:33;;;;;;;11.93;5.90;;;21.10;97.30;;;;;;5031125;28;20174;-87
2021/07/28 08:41:04;;;;;;;8.97;6.20;;;21.10;97.30;;;;;;5029884;28;20200;-86
2021/07/28 08:43:37;;;;;;;6.87;5.17;;;21.10;97.30;;;;;;5030989;28;20411;-87
2021/07/28 08:46:05;;;;;;;7.47;6.07;;;21.10;97.30;;;;;;5030035;28;20923;-87
2021/07/28 08:48:35;;;;;;;11.10;6.03;;;21.20;97.30;;;;;;5024971;28;20427;-88
2021/07/28 08:51:03;;;;;;;6.60;5.60;;;21.20;97.30;;;;;;5031961;28;20424;-87
2021/07/28 08:53:29;;;;;;;11.67;5.80;;;21.20;97.30;;;;;;5015102;28;20531;-88
2021/07/28 08:55:56;;;;;;;9.00;5.70;;;21.20;97.30;;;;;;5015084;28;20491;-87
2021/07/28 08:58:24;;;;;;;8.43;5.50;;;21.20;97.30;;;;;;5018599;28;20188;-87
2021/07/28 09:00:50;;;;;;;5.97;4.87;;;21.30;97.30;;;;;;5019443;28;20422;-87
2021/07/28 09:03:16;;;;;;;9.93;5.17;;;21.60;97.30;;;;;;5034225;28;20427;-87
2021/07/28 09:05:48;;;;;;;9.63;5.60;;;21.70;97.30;;;;;;5019270;28;20515;-86
2021/07/28 09:08:26;;;;;;;8.23;4.50;;;21.70;97.30;;;;;;5033538;28;20184;-86
2021/07/28 09:10:57;;;;;;;7.40;5.00;;;21.60;97.30;;;;;;5031947;28;20446;-87
2021/07/28 09:13:41;;;;;;;7.23;5.13;;;21.70;97.30;;;;;;5014402;28;20463;-87
2021/07/28 09:16:09;;;;;;;6.70;4.93;;;21.70;96.70;;;;;;5022424;28;20447;-89
2021/07/28 09:18:38;;;;;;;7.60;4.70;;;21.70;96.70;;;;;;5030602;28;20460;-87
2021/07/28 09:21:25;;;;;;;13.87;5.30;;;21.70;96.60;;;;;;5013744;28;20424;-87
2021/07/28 09:23:52;;;;;;;6.87;4.80;;;21.70;96.30;;;;;;5021703;28;20532;-87
2021/07/28 09:26:50;;;;;;;8.50;5.50;;;21.70;95.00;;;;;;5022686;28;20451;-88
2021/07/28 09:29:17;;;;;;;10.53;4.80;;;21.70;95.00;;;;;;5016542;28;20547;-88
2021/07/28 09:31:48;;;;;;;6.47;4.27;;;21.70;96.10;;;;;;5014776;28;20424;-86
2021/07/28 09:34:19;;;;;;;6.43;4.80;;;21.90;95.10;;;;;;5014327;28;20432;-87
2021/07/28 09:36:45;;;;;;;7.50;5.10;;;21.90;94.70;;;;;;5015100;28;20484;-87
2021/07/28 09:39:22;;;;;;;5.47;4.40;;;22.00;95.60;;;;;;5015385;28;20428;-86
2021/07/28 09:41:47;;;;;;;8.43;5.33;;;22.10;96.00;;;;;;5018711;28;20431;-87
2021/07/28 09:44:29;;;;;;;11.57;5.87;;;22.20;94.10;;;;;;5016600;28;20446;-87
2021/07/28 09:47:06;;;;;;;8.73;5.30;;;22.10;93.70;;;;;;5020667;28;20213;-88
2021/07/28 09:49:32;;;;;;;11.20;6.13;;;22.10;94.60;;;;;;5020265;28;20978;-86
2021/07/28 09:51:57;;;;;;;6.77;4.87;;;22.20;94.50;;;;;;5013639;28;20487;-88
2021/07/28 09:54:27;;;;;;;7.67;5.57;;;22.40;93.80;;;;;;5026598;28;20421;-89
2021/07/28 09:56:54;;;;;;;9.87;4.83;;;22.60;94.50;;;;;;5026552;28;20220;-90
2021/07/28 09:59:22;;;;;;;10.03;4.97;;;22.80;94.80;;;;;;5020946;28;20818;-89
2021/07/28 10:01:48;;;;;;;13.00;5.67;;;22.90;93.10;;;;;;5025846;28;20410;-89
2021/07/28 10:04:17;;;;;;;10.17;5.27;;;22.90;93.50;;;;;;5030950;28;20439;-88
2021/07/28 10:06:47;;;;;;;11.00;5.33;;;23.00;92.10;;;;;;5013179;28;20432;-90
2021/07/28 10:09:16;;;;;;;8.00;5.27;;;22.90;93.30;;;;;;5021210;28;20417;-88
2021/07/28 10:11:46;;;;;;;8.27;5.17;;;23.10;94.40;;;;;;5015739;28;20482;-89
2021/07/28 10:14:16;;;;;;;7.97;4.60;;;23.20;93.20;;;;;;5021902;28;20913;-89
2021/07/28 10:16:42;;;;;;;5.20;4.40;;;23.30;92.70;;;;;;5013601;28;20566;-88
2021/07/28 10:19:09;;;;;;;6.53;5.00;;;23.20;92.50;;;;;;5015281;28;20490;-89
2021/07/28 10:21:35;;;;;;;7.03;4.37;;;23.20;91.00;;;;;;5019060;28;20382;-89
2021/07/28 10:24:02;;;;;;;9.03;5.17;;;23.30;91.90;;;;;;5013628;28;20416;-89
2021/07/28 10:26:32;;;;;;;5.30;4.63;;;23.50;91.00;;;;;;5015020;28;20443;-90
2021/07/28 10:28:57;;;;;;;5.70;4.30;;;23.50;91.30;;;;;;5013581;28;20436;-89
2021/07/28 10:31:28;;;;;;;6.30;5.10;;;23.50;91.10;;;;;;5012266;28;21106;-88
2021/07/28 10:33:55;;;;;;;6.80;4.47;;;23.50;91.80;;;;;;5012284;28;20659;-89
2021/07/28 10:36:47;;;;;;;10.43;4.93;;;23.50;91.30;;;;;;5013218;28;20455;-89
2021/07/28 10:39:34;;;;;;;7.40;4.50;;;23.60;90.10;;;;;;5038042;28;20471;-89
2021/07/28 10:42:02;;;;;;;6.93;4.67;;;23.60;90.90;;;;;;5038636;28;20527;-89
2021/07/28 10:44:27;;;;;;;6.57;4.43;;;23.60;90.50;;;;;;5012233;28;20881;-87
2021/07/28 10:46:55;;;;;;;6.60;4.83;;;23.50;89.40;;;;;;5012097;28;20849;-88
2021/07/28 10:49:36;;;;;;;7.57;4.97;;;23.50;89.70;;;;;;5012754;28;20216;-89
2021/07/28 10:52:02;;;;;;;8.53;5.20;;;23.50;90.90;;;;;;5016384;28;21151;-88
2021/07/28 10:54:50;;;;;;;7.47;4.90;;;23.50;90.40;;;;;;5019178;28;20524;-88
2021/07/28 10:57:34;;;;;;;5.87;4.70;;;23.50;90.50;;;;;;5029824;28;20880;-89
2021/07/28 11:00:04;;;;;;;10.87;4.63;;;23.50;91.00;;;;;;5027497;28;20855;-89
2021/07/28 11:02:52;;;;;;;6.47;3.77;;;23.60;90.70;;;;;;5021229;28;20866;-89
2021/07/28 11:05:21;;;;;;;8.93;4.77;;;23.70;90.00;;;;;;5032543;28;20439;-89
2021/07/28 11:08:02;;;;;;;7.90;5.20;;;23.70;90.00;;;;;;5029531;28;20423;-89
2021/07/28 11:10:51;;;;;;;6.97;4.50;;;23.70;90.50;;;;;;5014011;28;20485;-89
2021/07/28 11:13:27;;;;;;;11.63;5.43;;;23.80;90.40;;;;;;5027075;28;20982;-89
2021/07/28 11:16:04;;;;;;;9.80;4.73;;;23.80;90.40;;;;;;5022153;28;20447;-89
2021/07/28 11:18:38;;;;;;;6.87;4.27;;;23.90;90.10;;;;;;5015075;28;20825;-88
2021/07/28 11:21:09;;;;;;;5.97;4.20;;;23.90;90.10;;;;;;5012493;28;20435;-88
2021/07/28 11:23:34;;;;;;;7.17;4.20;;;23.90;89.80;;;;;;5015055;28;20432;-89
2021/07/28 11:26:02;;;;;;;7.20;4.90;;;23.80;88.70;;;;;;5026302;28;20504;-90
2021/07/28 11:28:28;;;;;;;7.63;4.50;;;23.80;90.90;;;;;;5021340;28;20185;-89
2021/07/28 11:30:57;;;;;;;6.03;4.30;;;23.80;90.90;;;;;;5014205;28;20416;-89
2021/07/28 11:33:24;;;;;;;8.07;4.60;;;23.80;89.90;;;;;;5013232;28;20220;-89
2021/07/28 11:35:53;;;;;;;7.43;4.53;;;23.80;90.50;;;;;;5017605;28;20498;-89
2021/07/28 11:38:23;;;;;;;7.30;4.60;;;23.90;91.00;;;;;;5030344;28;20957;-88
2021/07/28 11:40:54;;;;;;;6.80;4.60;;;24.00;88.50;;;;;;5030328;28;20506;-90
2021/07/28 11:43:27;;;;;;;5.80;3.93;;;24.00;88.60;;;;;;5031436;28;20434;-89
2021/07/28 11:45:53;;;;;;;5.30;4.10;;;24.00;88.50;;;;;;5031086;28;20439;-89
2021/07/28 11:48:33;;;;;;;4.77;3.90;;;24.00;88.40;;;;;;5019759;28;20431;-88
2021/07/28 11:51:03;;;;;;;6.23;4.40;;;23.90;86.90;;;;;;5013808;28;20607;-90
2021/07/28 11:53:30;;;;;;;5.53;4.30;;;23.70;86.40;;;;;;5030029;28;20470;-88
2021/07/28 11:56:09;;;;;;;7.20;4.57;;;23.70;85.90;;;;;;5011369;28;20471;-89
2021/07/28 11:58:46;;;;;;;8.33;4.73;;;23.80;87.20;;;;;;5014401;28;20428;-88
2021/07/28 12:01:25;;;;;;;8.70;4.70;;;23.80;87.20;;;;;;5039842;28;20436;-92
2021/07/28 12:03:57;;;;;;;5.83;4.40;;;23.80;88.50;;;;;;5041106;28;20546;-91
2021/07/28 12:06:42;;;;;;;7.43;4.57;;;23.90;88.20;;;;;;5046473;28;20436;-90
2021/07/28 12:09:18;;;;;;;7.20;4.90;;;23.90;87.00;;;;;;5035196;28;20443;-92
2021/07/28 12:11:49;;;;;;;10.67;5.37;;;23.90;88.00;;;;;;5037187;28;20435;-90
2021/07/28 12:14:40;;;;;;;10.50;5.27;;;23.90;86.80;;;;;;5015726;28;20454;-90
2021/07/28 12:17:18;;;;;;;9.50;5.23;;;23.90;87.00;;;;;;5034898;28;20452;-90
2021/07/28 12:20:14;;;;;;;7.90;5.33;;;23.90;87.70;;;;;;5018065;28;20408;-89
2021/07/28 12:22:44;;;;;;;9.10;4.93;;;23.80;87.20;;;;;;5012912;28;20432;-89
2021/07/28 12:25:13;;;;;;;7.43;4.70;;;23.80;88.20;;;;;;5031137;28;20444;-90
2021/07/28 12:27:56;;;;;;;8.17;4.50;;;23.90;87.70;;;;;;5028757;28;20512;-88
2021/07/28 12:30:38;;;;;;;9.40;4.97;;;24.00;87.50;;;;;;5034287;28;20477;-89
2021/07/28 12:33:15;;;;;;;15.87;5.13;;;24.10;88.00;;;;;;5015987;28;20463;-88
2021/07/28 12:35:56;;;;;;;7.70;4.60;;;24.20;87.10;;;;;;5014819;28;20423;-89
2021/07/28 12:38:25;;;;;;;7.17;4.63;;;24.20;86.60;;;;;;5016019;28;20458;-89
2021/07/28 12:40:57;;;;;;;8.57;4.90;;;24.30;87.40;;;;;;5027290;28;20420;-89
2021/07/28 12:43:24;;;;;;;6.97;4.57;;;24.40;86.40;;;;;;5026926;28;20490;-89
2021/07/28 12:46:03;;;;;;;10.80;4.73;;;24.50;86.10;;;;;;5016872;28;20448;-88
2021/07/28 12:48:30;;;;;;;8.00;4.47;;;24.60;85.90;;;;;;5014168;28;20436;-88